KAUW

Wausau Downtown Airport

Wausau, Wisconsin, USA
METAR KAUW 170254Z AUTO 33006G16KT 10SM OVC060 07/M03 A2997 RMK AO2 SLP162 T00671028 51018 TSNO
Observed Flight Rules
Oct-17 @ 02:54 UTC (16 minutes ago) Visual Flight Rules
Wind Visibility Clouds
330° at 6 knots
 Gusting to 16 knots
10 miles
  • Overcast at 6,000' AGL
Temperatures Readings
Current 7°C / 45°F
Dewpoint -3°C / 27°F
Humidity 49%
Altimeter 29.97" Hg
Pressure 1016.2 hPa
Elevation 362
METAR KAUW 170254Z AUTO 33006G16KT 10SM OVC060 07/M03 A2997 RMK AO2 SLP162 T00671028 51018 TSNO
Observed Flight Rules
Oct-17 @ 02:54 UTC
(16 minutes ago)
VFR
Wind Visibility
330° at 6 knots
 Gusting to 16 knots
10 miles
Clouds
  • Overcast at 6,000' AGL
Temperature Dewpoint
7°C / 45°F -3°C / 27°F
Humidity Altimeter Pressure
49% 29.97" Hg 1016.2 hPa